sensor_id;sensor_type;location;lat;lon;timestamp;P1;durP1;ratioP1;P2;durP2;ratioP2
61407;SDS011;47274;43.054;25.146;2023-08-06T00:00:06;4.90;;;3.00;;
61407;SDS011;47274;43.054;25.146;2023-08-06T00:02:34;4.97;;;2.97;;
61407;SDS011;47274;43.054;25.146;2023-08-06T00:05:00;6.55;;;3.00;;
61407;SDS011;47274;43.054;25.146;2023-08-06T00:07:26;6.47;;;3.05;;
61407;SDS011;47274;43.054;25.146;2023-08-06T00:09:54;7.10;;;3.13;;
61407;SDS011;47274;43.054;25.146;2023-08-06T00:12:20;5.28;;;2.67;;
61407;SDS011;47274;43.054;25.146;2023-08-06T00:14:56;5.40;;;2.90;;
61407;SDS011;47274;43.054;25.146;2023-08-06T00:17:25;8.20;;;3.30;;
61407;SDS011;47274;43.054;25.146;2023-08-06T00:20:10;4.63;;;2.78;;
61407;SDS011;47274;43.054;25.146;2023-08-06T00:22:39;5.25;;;3.17;;
61407;SDS011;47274;43.054;25.146;2023-08-06T00:25:10;5.18;;;2.90;;
61407;SDS011;47274;43.054;25.146;2023-08-06T00:27:49;3.80;;;2.95;;
61407;SDS011;47274;43.054;25.146;2023-08-06T00:30:24;5.28;;;2.78;;
61407;SDS011;47274;43.054;25.146;2023-08-06T00:32:52;4.68;;;2.63;;
61407;SDS011;47274;43.054;25.146;2023-08-06T00:35:20;4.70;;;3.00;;
61407;SDS011;47274;43.054;25.146;2023-08-06T00:37:46;4.43;;;2.90;;
61407;SDS011;47274;43.054;25.146;2023-08-06T00:40:16;4.28;;;2.60;;
61407;SDS011;47274;43.054;25.146;2023-08-06T00:42:48;4.97;;;2.85;;
61407;SDS011;47274;43.054;25.146;2023-08-06T00:45:14;3.20;;;2.85;;
61407;SDS011;47274;43.054;25.146;2023-08-06T00:47:56;5.97;;;2.92;;
61407;SDS011;47274;43.054;25.146;2023-08-06T00:50:25;5.05;;;3.00;;
61407;SDS011;47274;43.054;25.146;2023-08-06T00:52:51;6.18;;;2.90;;
61407;SDS011;47274;43.054;25.146;2023-08-06T00:55:20;3.33;;;2.83;;
61407;SDS011;47274;43.054;25.146;2023-08-06T00:57:46;3.80;;;2.33;;
61407;SDS011;47274;43.054;25.146;2023-08-06T01:00:16;3.75;;;2.63;;
61407;SDS011;47274;43.054;25.146;2023-08-06T01:02:44;5.18;;;2.78;;
61407;SDS011;47274;43.054;25.146;2023-08-06T01:05:20;4.57;;;2.80;;
61407;SDS011;47274;43.054;25.146;2023-08-06T01:15:56;2.92;;;2.40;;
61407;SDS011;47274;43.054;25.146;2023-08-06T01:18:27;3.83;;;2.63;;
61407;SDS011;47274;43.054;25.146;2023-08-06T01:20:53;3.25;;;2.30;;
61407;SDS011;47274;43.054;25.146;2023-08-06T01:23:28;4.70;;;2.55;;
61407;SDS011;47274;43.054;25.146;2023-08-06T01:26:02;4.55;;;2.65;;
61407;SDS011;47274;43.054;25.146;2023-08-06T01:31:36;3.33;;;2.53;;
61407;SDS011;47274;43.054;25.146;2023-08-06T01:34:07;3.27;;;2.57;;
61407;SDS011;47274;43.054;25.146;2023-08-06T01:36:39;2.50;;;2.30;;
61407;SDS011;47274;43.054;25.146;2023-08-06T01:39:13;4.40;;;2.40;;
61407;SDS011;47274;43.054;25.146;2023-08-06T01:41:42;4.03;;;2.25;;
61407;SDS011;47274;43.054;25.146;2023-08-06T01:44:08;3.47;;;2.40;;
61407;SDS011;47274;43.054;25.146;2023-08-06T01:46:34;4.32;;;2.50;;
61407;SDS011;47274;43.054;25.146;2023-08-06T01:49:12;2.00;;;1.77;;
61407;SDS011;47274;43.054;25.146;2023-08-06T01:51:40;3.47;;;2.60;;
61407;SDS011;47274;43.054;25.146;2023-08-06T01:54:13;3.50;;;2.15;;
61407;SDS011;47274;43.054;25.146;2023-08-06T01:56:48;4.50;;;2.50;;
61407;SDS011;47274;43.054;25.146;2023-08-06T01:59:14;4.85;;;2.58;;
61407;SDS011;47274;43.054;25.146;2023-08-06T02:01:40;3.25;;;2.17;;
61407;SDS011;47274;43.054;25.146;2023-08-06T02:04:07;4.82;;;2.50;;
61407;SDS011;47274;43.054;25.146;2023-08-06T02:06:33;5.35;;;2.53;;
61407;SDS011;47274;43.054;25.146;2023-08-06T02:08:59;3.65;;;2.35;;
61407;SDS011;47274;43.054;25.146;2023-08-06T02:11:25;3.00;;;2.33;;
61407;SDS011;47274;43.054;25.146;2023-08-06T02:13:51;5.53;;;2.67;;
61407;SDS011;47274;43.054;25.146;2023-08-06T02:16:27;2.60;;;2.17;;
61407;SDS011;47274;43.054;25.146;2023-08-06T02:18:55;4.60;;;2.70;;
61407;SDS011;47274;43.054;25.146;2023-08-06T02:21:39;3.92;;;1.92;;
61407;SDS011;47274;43.054;25.146;2023-08-06T02:24:07;2.95;;;2.30;;
61407;SDS011;47274;43.054;25.146;2023-08-06T02:26:38;2.55;;;2.28;;
61407;SDS011;47274;43.054;25.146;2023-08-06T02:29:09;5.15;;;2.70;;
61407;SDS011;47274;43.054;25.146;2023-08-06T02:31:38;2.67;;;2.28;;
61407;SDS011;47274;43.054;25.146;2023-08-06T02:34:09;2.67;;;1.95;;
61407;SDS011;47274;43.054;25.146;2023-08-06T02:36:38;4.38;;;2.60;;
61407;SDS011;47274;43.054;25.146;2023-08-06T02:39:04;2.38;;;2.17;;
61407;SDS011;47274;43.054;25.146;2023-08-06T02:41:29;3.75;;;2.30;;
61407;SDS011;47274;43.054;25.146;2023-08-06T02:43:58;3.08;;;2.38;;
61407;SDS011;47274;43.054;25.146;2023-08-06T02:46:24;3.10;;;2.35;;
61407;SDS011;47274;43.054;25.146;2023-08-06T02:48:53;2.53;;;2.03;;
61407;SDS011;47274;43.054;25.146;2023-08-06T02:51:19;2.42;;;1.92;;
61407;SDS011;47274;43.054;25.146;2023-08-06T02:53:45;2.08;;;1.90;;
61407;SDS011;47274;43.054;25.146;2023-08-06T02:56:14;2.33;;;1.95;;
61407;SDS011;47274;43.054;25.146;2023-08-06T02:58:56;3.65;;;2.58;;
61407;SDS011;47274;43.054;25.146;2023-08-06T03:01:34;4.97;;;2.25;;
61407;SDS011;47274;43.054;25.146;2023-08-06T03:04:08;4.35;;;2.33;;
61407;SDS011;47274;43.054;25.146;2023-08-06T03:06:39;4.88;;;2.38;;
61407;SDS011;47274;43.054;25.146;2023-08-06T03:09:05;4.35;;;2.58;;
61407;SDS011;47274;43.054;25.146;2023-08-06T03:11:31;4.00;;;2.22;;
61407;SDS011;47274;43.054;25.146;2023-08-06T03:16:29;2.80;;;2.13;;
61407;SDS011;47274;43.054;25.146;2023-08-06T03:18:55;3.90;;;2.40;;
61407;SDS011;47274;43.054;25.146;2023-08-06T03:21:21;4.15;;;2.50;;
61407;SDS011;47274;43.054;25.146;2023-08-06T03:23:47;3.08;;;2.40;;
61407;SDS011;47274;43.054;25.146;2023-08-06T03:26:15;5.20;;;2.58;;
61407;SDS011;47274;43.054;25.146;2023-08-06T03:28:41;5.43;;;2.58;;
61407;SDS011;47274;43.054;25.146;2023-08-06T03:31:15;3.28;;;2.45;;
61407;SDS011;47274;43.054;25.146;2023-08-06T03:33:43;3.92;;;2.40;;
61407;SDS011;47274;43.054;25.146;2023-08-06T03:36:14;2.55;;;2.15;;
61407;SDS011;47274;43.054;25.146;2023-08-06T03:38:45;4.47;;;2.53;;
61407;SDS011;47274;43.054;25.146;2023-08-06T03:41:13;3.65;;;2.25;;
61407;SDS011;47274;43.054;25.146;2023-08-06T03:43:39;2.88;;;1.92;;
61407;SDS011;47274;43.054;25.146;2023-08-06T03:46:09;3.15;;;2.28;;
61407;SDS011;47274;43.054;25.146;2023-08-06T03:48:36;5.07;;;2.10;;
61407;SDS011;47274;43.054;25.146;2023-08-06T03:51:02;3.42;;;1.98;;
61407;SDS011;47274;43.054;25.146;2023-08-06T03:53:28;3.17;;;2.13;;
61407;SDS011;47274;43.054;25.146;2023-08-06T03:55:54;4.80;;;1.88;;
61407;SDS011;47274;43.054;25.146;2023-08-06T03:58:21;2.17;;;1.98;;
61407;SDS011;47274;43.054;25.146;2023-08-06T04:00:57;3.40;;;1.92;;
61407;SDS011;47274;43.054;25.146;2023-08-06T04:03:47;2.08;;;1.75;;
61407;SDS011;47274;43.054;25.146;2023-08-06T04:06:13;3.15;;;2.00;;
61407;SDS011;47274;43.054;25.146;2023-08-06T04:08:39;3.38;;;2.08;;
61407;SDS011;47274;43.054;25.146;2023-08-06T04:11:06;3.38;;;1.73;;
61407;SDS011;47274;43.054;25.146;2023-08-06T04:13:42;2.20;;;1.77;;
61407;SDS011;47274;43.054;25.146;2023-08-06T04:16:19;2.50;;;2.10;;
61407;SDS011;47274;43.054;25.146;2023-08-06T04:18:46;1.73;;;1.63;;
61407;SDS011;47274;43.054;25.146;2023-08-06T04:21:12;3.35;;;1.98;;
61407;SDS011;47274;43.054;25.146;2023-08-06T04:23:39;4.03;;;2.10;;
61407;SDS011;47274;43.054;25.146;2023-08-06T04:26:13;3.50;;;2.22;;
61407;SDS011;47274;43.054;25.146;2023-08-06T04:28:38;2.60;;;2.25;;
61407;SDS011;47274;43.054;25.146;2023-08-06T04:31:15;3.20;;;1.92;;
61407;SDS011;47274;43.054;25.146;2023-08-06T04:33:54;2.97;;;2.10;;
61407;SDS011;47274;43.054;25.146;2023-08-06T04:36:34;2.03;;;1.80;;
61407;SDS011;47274;43.054;25.146;2023-08-06T04:39:00;2.40;;;2.10;;
61407;SDS011;47274;43.054;25.146;2023-08-06T04:41:28;3.85;;;1.83;;
61407;SDS011;47274;43.054;25.146;2023-08-06T04:43:54;2.80;;;2.05;;
61407;SDS011;47274;43.054;25.146;2023-08-06T04:46:20;2.00;;;1.83;;
61407;SDS011;47274;43.054;25.146;2023-08-06T04:48:50;2.30;;;2.08;;
61407;SDS011;47274;43.054;25.146;2023-08-06T04:51:31;4.47;;;2.28;;
61407;SDS011;47274;43.054;25.146;2023-08-06T04:53:59;2.72;;;1.58;;
61407;SDS011;47274;43.054;25.146;2023-08-06T04:56:37;3.67;;;1.80;;
61407;SDS011;47274;43.054;25.146;2023-08-06T04:59:06;4.35;;;2.22;;
61407;SDS011;47274;43.054;25.146;2023-08-06T05:01:37;3.30;;;2.10;;
61407;SDS011;47274;43.054;25.146;2023-08-06T05:04:06;6.85;;;3.30;;
61407;SDS011;47274;43.054;25.146;2023-08-06T05:06:32;8.98;;;3.70;;
61407;SDS011;47274;43.054;25.146;2023-08-06T05:08:58;12.20;;;4.43;;
61407;SDS011;47274;43.054;25.146;2023-08-06T05:11:31;8.80;;;3.42;;
61407;SDS011;47274;43.054;25.146;2023-08-06T05:13:57;7.47;;;3.10;;
61407;SDS011;47274;43.054;25.146;2023-08-06T05:16:28;4.67;;;2.60;;
61407;SDS011;47274;43.054;25.146;2023-08-06T05:18:59;6.68;;;2.97;;
61407;SDS011;47274;43.054;25.146;2023-08-06T05:21:25;3.17;;;2.40;;
61407;SDS011;47274;43.054;25.146;2023-08-06T05:24:01;4.75;;;2.50;;
61407;SDS011;47274;43.054;25.146;2023-08-06T05:26:29;2.65;;;2.28;;
61407;SDS011;47274;43.054;25.146;2023-08-06T05:28:55;3.75;;;2.42;;
61407;SDS011;47274;43.054;25.146;2023-08-06T05:31:23;3.65;;;2.60;;
61407;SDS011;47274;43.054;25.146;2023-08-06T05:33:59;3.13;;;2.40;;
61407;SDS011;47274;43.054;25.146;2023-08-06T05:36:25;1.95;;;1.77;;
61407;SDS011;47274;43.054;25.146;2023-08-06T05:38:51;2.95;;;2.22;;
61407;SDS011;47274;43.054;25.146;2023-08-06T05:41:21;3.08;;;2.20;;
61407;SDS011;47274;43.054;25.146;2023-08-06T05:43:56;3.20;;;2.03;;
61407;SDS011;47274;43.054;25.146;2023-08-06T05:46:31;3.28;;;2.10;;
61407;SDS011;47274;43.054;25.146;2023-08-06T05:49:00;3.60;;;2.53;;
61407;SDS011;47274;43.054;25.146;2023-08-06T05:51:45;5.10;;;2.70;;
61407;SDS011;47274;43.054;25.146;2023-08-06T05:54:32;4.43;;;2.53;;
61407;SDS011;47274;43.054;25.146;2023-08-06T05:57:00;3.28;;;2.50;;
61407;SDS011;47274;43.054;25.146;2023-08-06T05:59:29;3.40;;;2.00;;
61407;SDS011;47274;43.054;25.146;2023-08-06T06:02:05;5.18;;;2.80;;
61407;SDS011;47274;43.054;25.146;2023-08-06T06:04:33;2.85;;;2.17;;
61407;SDS011;47274;43.054;25.146;2023-08-06T06:06:59;3.58;;;2.47;;
61407;SDS011;47274;43.054;25.146;2023-08-06T06:09:25;3.30;;;2.42;;
61407;SDS011;47274;43.054;25.146;2023-08-06T06:11:51;8.10;;;2.63;;
61407;SDS011;47274;43.054;25.146;2023-08-06T06:14:17;4.47;;;2.70;;
61407;SDS011;47274;43.054;25.146;2023-08-06T06:16:44;4.60;;;2.75;;
61407;SDS011;47274;43.054;25.146;2023-08-06T06:19:10;5.70;;;3.00;;
61407;SDS011;47274;43.054;25.146;2023-08-06T06:21:37;4.03;;;2.72;;
61407;SDS011;47274;43.054;25.146;2023-08-06T06:24:06;6.40;;;2.70;;
61407;SDS011;47274;43.054;25.146;2023-08-06T06:26:40;4.70;;;2.85;;
61407;SDS011;47274;43.054;25.146;2023-08-06T06:29:09;10.55;;;3.20;;
61407;SDS011;47274;43.054;25.146;2023-08-06T06:31:35;3.92;;;2.90;;
61407;SDS011;47274;43.054;25.146;2023-08-06T06:34:07;5.60;;;2.90;;
61407;SDS011;47274;43.054;25.146;2023-08-06T06:36:33;5.80;;;3.00;;
61407;SDS011;47274;43.054;25.146;2023-08-06T06:39:09;3.20;;;2.80;;
61407;SDS011;47274;43.054;25.146;2023-08-06T06:41:34;3.38;;;2.60;;
61407;SDS011;47274;43.054;25.146;2023-08-06T06:44:12;4.47;;;2.90;;
61407;SDS011;47274;43.054;25.146;2023-08-06T06:46:53;8.30;;;3.05;;
61407;SDS011;47274;43.054;25.146;2023-08-06T06:49:31;5.50;;;3.25;;
61407;SDS011;47274;43.054;25.146;2023-08-06T06:52:03;8.63;;;3.93;;
61407;SDS011;47274;43.054;25.146;2023-08-06T06:54:29;4.53;;;3.45;;
61407;SDS011;47274;43.054;25.146;2023-08-06T06:56:58;5.97;;;3.60;;
61407;SDS011;47274;43.054;25.146;2023-08-06T06:59:26;4.32;;;3.20;;
61407;SDS011;47274;43.054;25.146;2023-08-06T07:01:52;5.07;;;3.40;;
61407;SDS011;47274;43.054;25.146;2023-08-06T07:04:21;6.78;;;3.65;;
61407;SDS011;47274;43.054;25.146;2023-08-06T07:06:57;5.03;;;3.05;;
61407;SDS011;47274;43.054;25.146;2023-08-06T07:09:23;5.15;;;3.05;;
61407;SDS011;47274;43.054;25.146;2023-08-06T07:11:52;6.03;;;3.30;;
61407;SDS011;47274;43.054;25.146;2023-08-06T07:14:17;5.25;;;3.63;;
61407;SDS011;47274;43.054;25.146;2023-08-06T07:16:54;4.43;;;3.38;;
61407;SDS011;47274;43.054;25.146;2023-08-06T07:19:25;6.63;;;3.77;;
61407;SDS011;47274;43.054;25.146;2023-08-06T07:21:50;5.20;;;3.88;;
61407;SDS011;47274;43.054;25.146;2023-08-06T07:24:16;5.82;;;3.72;;
61407;SDS011;47274;43.054;25.146;2023-08-06T07:26:42;4.97;;;3.42;;
61407;SDS011;47274;43.054;25.146;2023-08-06T07:29:13;4.40;;;3.72;;
61407;SDS011;47274;43.054;25.146;2023-08-06T07:31:45;9.82;;;4.57;;
61407;SDS011;47274;43.054;25.146;2023-08-06T07:34:11;8.38;;;4.38;;
61407;SDS011;47274;43.054;25.146;2023-08-06T07:36:39;6.28;;;3.70;;
61407;SDS011;47274;43.054;25.146;2023-08-06T07:39:14;8.52;;;3.90;;
61407;SDS011;47274;43.054;25.146;2023-08-06T07:41:42;9.50;;;4.45;;
61407;SDS011;47274;43.054;25.146;2023-08-06T07:44:07;7.47;;;3.95;;
61407;SDS011;47274;43.054;25.146;2023-08-06T07:46:33;6.07;;;3.75;;
61407;SDS011;47274;43.054;25.146;2023-08-06T07:49:01;7.15;;;4.10;;
61407;SDS011;47274;43.054;25.146;2023-08-06T07:51:28;8.90;;;4.80;;
61407;SDS011;47274;43.054;25.146;2023-08-06T07:53:53;7.03;;;3.90;;
61407;SDS011;47274;43.054;25.146;2023-08-06T07:56:19;5.38;;;3.88;;
61407;SDS011;47274;43.054;25.146;2023-08-06T07:58:48;5.63;;;3.50;;
61407;SDS011;47274;43.054;25.146;2023-08-06T08:01:29;11.43;;;4.53;;
61407;SDS011;47274;43.054;25.146;2023-08-06T08:03:57;7.80;;;4.78;;
61407;SDS011;47274;43.054;25.146;2023-08-06T08:06:23;8.13;;;3.90;;
61407;SDS011;47274;43.054;25.146;2023-08-06T08:08:56;6.18;;;3.60;;
61407;SDS011;47274;43.054;25.146;2023-08-06T08:11:22;6.63;;;4.18;;
61407;SDS011;47274;43.054;25.146;2023-08-06T08:13:48;7.05;;;3.90;;
61407;SDS011;47274;43.054;25.146;2023-08-06T08:16:14;8.57;;;4.07;;
61407;SDS011;47274;43.054;25.146;2023-08-06T08:18:42;4.63;;;3.35;;
61407;SDS011;47274;43.054;25.146;2023-08-06T08:21:12;5.82;;;3.80;;
61407;SDS011;47274;43.054;25.146;2023-08-06T08:23:38;5.20;;;3.63;;
61407;SDS011;47274;43.054;25.146;2023-08-06T08:26:07;6.35;;;3.72;;
61407;SDS011;47274;43.054;25.146;2023-08-06T08:28:33;7.05;;;3.83;;
61407;SDS011;47274;43.054;25.146;2023-08-06T08:31:10;7.68;;;3.90;;
61407;SDS011;47274;43.054;25.146;2023-08-06T08:33:40;6.97;;;4.28;;
61407;SDS011;47274;43.054;25.146;2023-08-06T08:36:05;6.70;;;3.80;;
61407;SDS011;47274;43.054;25.146;2023-08-06T08:38:32;6.32;;;3.95;;
61407;SDS011;47274;43.054;25.146;2023-08-06T08:40:57;5.07;;;3.60;;
61407;SDS011;47274;43.054;25.146;2023-08-06T08:43:23;6.78;;;3.80;;
61407;SDS011;47274;43.054;25.146;2023-08-06T08:45:50;5.57;;;3.80;;
61407;SDS011;47274;43.054;25.146;2023-08-06T08:48:17;4.75;;;3.60;;
61407;SDS011;47274;43.054;25.146;2023-08-06T08:50:47;7.50;;;3.78;;
61407;SDS011;47274;43.054;25.146;2023-08-06T08:53:15;7.68;;;3.95;;
61407;SDS011;47274;43.054;25.146;2023-08-06T08:55:41;6.78;;;3.80;;
61407;SDS011;47274;43.054;25.146;2023-08-06T08:58:10;6.55;;;3.92;;
61407;SDS011;47274;43.054;25.146;2023-08-06T09:00:36;6.38;;;4.10;;
61407;SDS011;47274;43.054;25.146;2023-08-06T09:03:06;6.78;;;3.80;;
61407;SDS011;47274;43.054;25.146;2023-08-06T09:05:31;7.30;;;4.20;;
61407;SDS011;47274;43.054;25.146;2023-08-06T09:08:05;8.63;;;4.15;;
61407;SDS011;47274;43.054;25.146;2023-08-06T09:10:33;7.40;;;4.10;;
61407;SDS011;47274;43.054;25.146;2023-08-06T09:13:02;5.97;;;3.80;;
61407;SDS011;47274;43.054;25.146;2023-08-06T09:15:29;9.13;;;4.25;;
61407;SDS011;47274;43.054;25.146;2023-08-06T09:17:55;10.98;;;4.53;;
61407;SDS011;47274;43.054;25.146;2023-08-06T09:20:21;6.85;;;4.53;;
61407;SDS011;47274;43.054;25.146;2023-08-06T09:22:47;10.80;;;4.60;;
61407;SDS011;47274;43.054;25.146;2023-08-06T09:25:23;9.07;;;4.00;;
61407;SDS011;47274;43.054;25.146;2023-08-06T09:27:51;6.78;;;4.35;;
61407;SDS011;47274;43.054;25.146;2023-08-06T09:30:31;9.13;;;4.78;;
61407;SDS011;47274;43.054;25.146;2023-08-06T09:33:08;9.60;;;4.55;;
61407;SDS011;47274;43.054;25.146;2023-08-06T09:35:39;7.72;;;4.25;;
61407;SDS011;47274;43.054;25.146;2023-08-06T09:38:09;6.47;;;3.92;;
61407;SDS011;47274;43.054;25.146;2023-08-06T09:41:03;11.40;;;4.28;;
61407;SDS011;47274;43.054;25.146;2023-08-06T09:43:42;10.70;;;4.38;;
61407;SDS011;47274;43.054;25.146;2023-08-06T09:46:12;7.95;;;4.18;;
61407;SDS011;47274;43.054;25.146;2023-08-06T09:48:44;8.27;;;4.32;;
61407;SDS011;47274;43.054;25.146;2023-08-06T09:51:11;8.10;;;4.03;;
61407;SDS011;47274;43.054;25.146;2023-08-06T09:54:05;7.65;;;4.00;;
61407;SDS011;47274;43.054;25.146;2023-08-06T09:56:57;7.18;;;4.03;;
61407;SDS011;47274;43.054;25.146;2023-08-06T09:59:48;5.32;;;3.33;;
61407;SDS011;47274;43.054;25.146;2023-08-06T10:02:39;7.00;;;4.03;;
61407;SDS011;47274;43.054;25.146;2023-08-06T10:05:06;6.50;;;4.10;;
61407;SDS011;47274;43.054;25.146;2023-08-06T10:07:35;7.03;;;3.90;;
61407;SDS011;47274;43.054;25.146;2023-08-06T10:10:02;5.97;;;3.60;;
61407;SDS011;47274;43.054;25.146;2023-08-06T10:12:34;8.25;;;4.07;;
61407;SDS011;47274;43.054;25.146;2023-08-06T10:15:06;6.80;;;3.83;;
61407;SDS011;47274;43.054;25.146;2023-08-06T10:17:35;5.05;;;3.70;;
61407;SDS011;47274;43.054;25.146;2023-08-06T10:20:08;8.15;;;4.03;;
61407;SDS011;47274;43.054;25.146;2023-08-06T10:22:46;6.10;;;3.45;;
61407;SDS011;47274;43.054;25.146;2023-08-06T10:25:26;6.50;;;3.40;;
61407;SDS011;47274;43.054;25.146;2023-08-06T10:28:09;6.00;;;3.30;;
61407;SDS011;47274;43.054;25.146;2023-08-06T10:30:45;6.78;;;3.15;;
61407;SDS011;47274;43.054;25.146;2023-08-06T10:33:15;7.85;;;3.38;;
61407;SDS011;47274;43.054;25.146;2023-08-06T10:35:47;5.70;;;3.40;;
61407;SDS011;47274;43.054;25.146;2023-08-06T10:38:24;6.18;;;3.50;;
61407;SDS011;47274;43.054;25.146;2023-08-06T10:43:25;5.30;;;3.22;;
61407;SDS011;47274;43.054;25.146;2023-08-06T10:45:51;7.60;;;3.67;;
61407;SDS011;47274;43.054;25.146;2023-08-06T10:50:59;8.82;;;3.40;;
61407;SDS011;47274;43.054;25.146;2023-08-06T10:53:26;5.50;;;3.22;;
61407;SDS011;47274;43.054;25.146;2023-08-06T10:55:52;4.47;;;3.03;;
61407;SDS011;47274;43.054;25.146;2023-08-06T10:58:17;5.55;;;3.25;;
61407;SDS011;47274;43.054;25.146;2023-08-06T11:00:43;6.05;;;3.00;;
61407;SDS011;47274;43.054;25.146;2023-08-06T11:03:12;3.65;;;2.97;;
61407;SDS011;47274;43.054;25.146;2023-08-06T11:05:38;4.28;;;3.13;;
61407;SDS011;47274;43.054;25.146;2023-08-06T11:08:04;4.45;;;3.08;;
61407;SDS011;47274;43.054;25.146;2023-08-06T11:10:32;4.60;;;2.90;;
61407;SDS011;47274;43.054;25.146;2023-08-06T11:13:02;4.18;;;2.92;;
61407;SDS011;47274;43.054;25.146;2023-08-06T11:15:29;3.53;;;2.78;;
61407;SDS011;47274;43.054;25.146;2023-08-06T11:17:56;3.10;;;2.80;;
61407;SDS011;47274;43.054;25.146;2023-08-06T11:20:23;4.25;;;2.70;;
61407;SDS011;47274;43.054;25.146;2023-08-06T11:22:50;4.57;;;3.28;;
61407;SDS011;47274;43.054;25.146;2023-08-06T11:25:15;3.60;;;2.80;;
61407;SDS011;47274;43.054;25.146;2023-08-06T11:27:41;5.20;;;3.00;;
61407;SDS011;47274;43.054;25.146;2023-08-06T11:30:07;6.25;;;3.13;;
61407;SDS011;47274;43.054;25.146;2023-08-06T11:32:46;6.88;;;3.60;;
61407;SDS011;47274;43.054;25.146;2023-08-06T11:35:15;4.93;;;3.10;;
61407;SDS011;47274;43.054;25.146;2023-08-06T11:37:45;4.45;;;2.97;;
61407;SDS011;47274;43.054;25.146;2023-08-06T11:40:11;5.97;;;3.08;;
61407;SDS011;47274;43.054;25.146;2023-08-06T11:42:37;4.20;;;3.22;;
61407;SDS011;47274;43.054;25.146;2023-08-06T11:45:03;3.58;;;2.97;;
61407;SDS011;47274;43.054;25.146;2023-08-06T11:47:32;5.47;;;2.97;;
61407;SDS011;47274;43.054;25.146;2023-08-06T11:49:58;4.05;;;2.90;;
61407;SDS011;47274;43.054;25.146;2023-08-06T11:52:24;4.50;;;3.30;;
61407;SDS011;47274;43.054;25.146;2023-08-06T11:55:03;6.88;;;3.05;;
61407;SDS011;47274;43.054;25.146;2023-08-06T11:57:46;9.00;;;3.90;;
61407;SDS011;47274;43.054;25.146;2023-08-06T12:00:13;4.47;;;3.10;;
61407;SDS011;47274;43.054;25.146;2023-08-06T12:02:50;5.30;;;3.15;;
61407;SDS011;47274;43.054;25.146;2023-08-06T12:05:31;6.75;;;3.60;;
61407;SDS011;47274;43.054;25.146;2023-08-06T12:08:08;4.15;;;3.30;;
61407;SDS011;47274;43.054;25.146;2023-08-06T12:10:59;4.55;;;3.22;;
61407;SDS011;47274;43.054;25.146;2023-08-06T12:13:28;3.97;;;3.10;;
61407;SDS011;47274;43.054;25.146;2023-08-06T12:15:54;3.95;;;3.15;;
61407;SDS011;47274;43.054;25.146;2023-08-06T12:18:22;5.97;;;3.13;;
61407;SDS011;47274;43.054;25.146;2023-08-06T12:20:50;5.80;;;2.97;;
61407;SDS011;47274;43.054;25.146;2023-08-06T12:23:17;7.05;;;3.25;;
61407;SDS011;47274;43.054;25.146;2023-08-06T12:25:43;5.75;;;3.45;;
61407;SDS011;47274;43.054;25.146;2023-08-06T12:28:10;6.40;;;3.63;;
61407;SDS011;47274;43.054;25.146;2023-08-06T12:30:36;5.50;;;3.20;;
61407;SDS011;47274;43.054;25.146;2023-08-06T12:33:01;8.23;;;3.67;;
61407;SDS011;47274;43.054;25.146;2023-08-06T12:35:27;5.18;;;3.40;;
61407;SDS011;47274;43.054;25.146;2023-08-06T12:37:53;7.25;;;4.05;;
61407;SDS011;47274;43.054;25.146;2023-08-06T12:40:20;3.65;;;3.15;;
61407;SDS011;47274;43.054;25.146;2023-08-06T12:42:46;4.50;;;3.25;;
61407;SDS011;47274;43.054;25.146;2023-08-06T12:45:14;5.63;;;3.20;;
61407;SDS011;47274;43.054;25.146;2023-08-06T12:47:40;5.43;;;3.38;;
61407;SDS011;47274;43.054;25.146;2023-08-06T12:50:06;5.90;;;3.33;;
61407;SDS011;47274;43.054;25.146;2023-08-06T12:52:32;4.20;;;3.25;;
61407;SDS011;47274;43.054;25.146;2023-08-06T12:55:01;3.35;;;2.95;;
61407;SDS011;47274;43.054;25.146;2023-08-06T12:57:27;5.88;;;3.30;;
61407;SDS011;47274;43.054;25.146;2023-08-06T12:59:54;4.60;;;3.22;;
61407;SDS011;47274;43.054;25.146;2023-08-06T13:02:20;5.20;;;3.40;;
61407;SDS011;47274;43.054;25.146;2023-08-06T13:04:46;3.90;;;3.20;;
61407;SDS011;47274;43.054;25.146;2023-08-06T13:07:13;5.63;;;3.40;;
61407;SDS011;47274;43.054;25.146;2023-08-06T13:09:38;6.13;;;3.33;;
61407;SDS011;47274;43.054;25.146;2023-08-06T13:12:04;5.30;;;3.45;;
61407;SDS011;47274;43.054;25.146;2023-08-06T13:14:31;7.72;;;3.63;;
61407;SDS011;47274;43.054;25.146;2023-08-06T13:17:00;6.90;;;3.60;;
61407;SDS011;47274;43.054;25.146;2023-08-06T13:19:26;8.32;;;3.42;;
61407;SDS011;47274;43.054;25.146;2023-08-06T13:24:33;7.47;;;4.15;;
61407;SDS011;47274;43.054;25.146;2023-08-06T13:27:01;7.60;;;3.42;;
61407;SDS011;47274;43.054;25.146;2023-08-06T13:29:27;5.03;;;3.42;;
61407;SDS011;47274;43.054;25.146;2023-08-06T13:32:17;9.90;;;4.00;;
61407;SDS011;47274;43.054;25.146;2023-08-06T13:34:43;5.30;;;3.53;;
61407;SDS011;47274;43.054;25.146;2023-08-06T13:37:09;7.25;;;3.80;;
61407;SDS011;47274;43.054;25.146;2023-08-06T13:39:36;6.07;;;3.67;;
61407;SDS011;47274;43.054;25.146;2023-08-06T13:42:02;6.32;;;3.80;;
61407;SDS011;47274;43.054;25.146;2023-08-06T13:44:27;6.38;;;3.60;;
61407;SDS011;47274;43.054;25.146;2023-08-06T13:46:54;7.95;;;3.65;;
61407;SDS011;47274;43.054;25.146;2023-08-06T13:49:20;5.78;;;3.65;;
61407;SDS011;47274;43.054;25.146;2023-08-06T13:51:45;6.88;;;3.58;;
61407;SDS011;47274;43.054;25.146;2023-08-06T13:54:11;7.30;;;3.33;;
61407;SDS011;47274;43.054;25.146;2023-08-06T13:56:37;4.97;;;3.60;;
61407;SDS011;47274;43.054;25.146;2023-08-06T13:59:03;4.65;;;3.58;;
61407;SDS011;47274;43.054;25.146;2023-08-06T14:01:33;5.70;;;3.70;;
61407;SDS011;47274;43.054;25.146;2023-08-06T14:03:59;7.18;;;3.75;;
61407;SDS011;47274;43.054;25.146;2023-08-06T14:06:25;4.35;;;3.38;;
61407;SDS011;47274;43.054;25.146;2023-08-06T14:08:50;6.47;;;3.60;;
61407;SDS011;47274;43.054;25.146;2023-08-06T14:11:18;7.45;;;3.85;;
61407;SDS011;47274;43.054;25.146;2023-08-06T14:13:44;4.60;;;3.40;;
61407;SDS011;47274;43.054;25.146;2023-08-06T14:16:10;5.78;;;3.80;;
61407;SDS011;47274;43.054;25.146;2023-08-06T14:18:36;6.78;;;3.92;;
61407;SDS011;47274;43.054;25.146;2023-08-06T14:21:03;7.95;;;3.90;;
61407;SDS011;47274;43.054;25.146;2023-08-06T14:23:29;6.03;;;3.30;;
61407;SDS011;47274;43.054;25.146;2023-08-06T14:25:55;7.45;;;3.70;;
61407;SDS011;47274;43.054;25.146;2023-08-06T14:28:21;5.03;;;3.08;;
61407;SDS011;47274;43.054;25.146;2023-08-06T14:30:47;5.82;;;3.55;;
61407;SDS011;47274;43.054;25.146;2023-08-06T14:33:13;6.75;;;3.30;;
61407;SDS011;47274;43.054;25.146;2023-08-06T14:35:38;6.93;;;3.40;;
61407;SDS011;47274;43.054;25.146;2023-08-06T14:38:04;4.85;;;3.45;;
61407;SDS011;47274;43.054;25.146;2023-08-06T14:40:30;4.22;;;3.30;;
61407;SDS011;47274;43.054;25.146;2023-08-06T14:43:00;5.15;;;3.38;;
61407;SDS011;47274;43.054;25.146;2023-08-06T14:45:29;5.28;;;3.33;;
61407;SDS011;47274;43.054;25.146;2023-08-06T14:47:56;4.68;;;3.20;;
61407;SDS011;47274;43.054;25.146;2023-08-06T14:50:22;7.00;;;3.33;;
61407;SDS011;47274;43.054;25.146;2023-08-06T14:52:50;4.63;;;3.17;;
61407;SDS011;47274;43.054;25.146;2023-08-06T14:55:25;4.05;;;3.05;;
61407;SDS011;47274;43.054;25.146;2023-08-06T14:57:52;4.75;;;3.03;;
61407;SDS011;47274;43.054;25.146;2023-08-06T15:00:18;6.32;;;3.30;;
61407;SDS011;47274;43.054;25.146;2023-08-06T15:02:45;4.40;;;3.10;;
61407;SDS011;47274;43.054;25.146;2023-08-06T15:05:13;5.22;;;3.13;;
61407;SDS011;47274;43.054;25.146;2023-08-06T15:07:39;5.60;;;3.25;;